sensor_id;sensor_type;location;lat;lon;timestamp;temperature;humidity
35258;DHT22;21385;50.878;8.050;2023-07-31T00:00:05;17.60;99.90
35258;DHT22;21385;50.878;8.050;2023-07-31T00:02:30;17.50;99.90
35258;DHT22;21385;50.878;8.050;2023-07-31T00:04:56;17.60;99.90
35258;DHT22;21385;50.878;8.050;2023-07-31T00:07:22;17.60;99.90
35258;DHT22;21385;50.878;8.050;2023-07-31T00:09:47;17.60;99.90
35258;DHT22;21385;50.878;8.050;2023-07-31T00:12:13;17.60;99.90
35258;DHT22;21385;50.878;8.050;2023-07-31T00:14:38;17.50;99.90
35258;DHT22;21385;50.878;8.050;2023-07-31T00:17:04;17.50;99.90
35258;DHT22;21385;50.878;8.050;2023-07-31T00:19:30;17.40;99.90
35258;DHT22;21385;50.878;8.050;2023-07-31T00:21:55;17.40;99.90
35258;DHT22;21385;50.878;8.050;2023-07-31T00:24:21;17.40;99.90
35258;DHT22;21385;50.878;8.050;2023-07-31T00:26:46;17.40;99.90
35258;DHT22;21385;50.878;8.050;2023-07-31T00:29:12;17.40;99.90
35258;DHT22;21385;50.878;8.050;2023-07-31T00:31:38;17.40;99.90
35258;DHT22;21385;50.878;8.050;2023-07-31T00:34:03;17.40;99.90
35258;DHT22;21385;50.878;8.050;2023-07-31T00:36:29;17.40;99.90
35258;DHT22;21385;50.878;8.050;2023-07-31T00:38:54;17.40;99.90
35258;DHT22;21385;50.878;8.050;2023-07-31T00:41:20;17.30;99.90
35258;DHT22;21385;50.878;8.050;2023-07-31T00:43:45;17.20;99.90
35258;DHT22;21385;50.878;8.050;2023-07-31T00:46:11;17.30;99.90
35258;DHT22;21385;50.878;8.050;2023-07-31T00:48:37;17.30;99.90
35258;DHT22;21385;50.878;8.050;2023-07-31T00:51:03;17.20;99.90
35258;DHT22;21385;50.878;8.050;2023-07-31T00:53:29;17.20;99.90
35258;DHT22;21385;50.878;8.050;2023-07-31T00:55:55;17.20;99.90
35258;DHT22;21385;50.878;8.050;2023-07-31T00:58:21;17.10;99.90
35258;DHT22;21385;50.878;8.050;2023-07-31T01:00:46;17.10;99.90
35258;DHT22;21385;50.878;8.050;2023-07-31T01:03:12;17.10;99.90
35258;DHT22;21385;50.878;8.050;2023-07-31T01:08:53;17.10;99.90
35258;DHT22;21385;50.878;8.050;2023-07-31T01:11:25;17.20;99.90
35258;DHT22;21385;50.878;8.050;2023-07-31T01:13:53;17.30;99.90
35258;DHT22;21385;50.878;8.050;2023-07-31T01:16:19;17.30;99.90
35258;DHT22;21385;50.878;8.050;2023-07-31T01:18:45;17.30;99.90
35258;DHT22;21385;50.878;8.050;2023-07-31T01:24:04;17.40;99.90
35258;DHT22;21385;50.878;8.050;2023-07-31T01:26:36;17.50;99.90
35258;DHT22;21385;50.878;8.050;2023-07-31T01:29:10;17.50;99.90
35258;DHT22;21385;50.878;8.050;2023-07-31T01:31:39;17.50;99.90
35258;DHT22;21385;50.878;8.050;2023-07-31T01:34:09;17.40;99.90
35258;DHT22;21385;50.878;8.050;2023-07-31T01:36:35;17.30;99.90
35258;DHT22;21385;50.878;8.050;2023-07-31T01:39:02;17.30;99.90
35258;DHT22;21385;50.878;8.050;2023-07-31T01:41:27;17.20;99.90
35258;DHT22;21385;50.878;8.050;2023-07-31T01:43:53;17.10;99.90
35258;DHT22;21385;50.878;8.050;2023-07-31T01:46:19;17.10;99.90
35258;DHT22;21385;50.878;8.050;2023-07-31T01:48:44;17.00;99.90
35258;DHT22;21385;50.878;8.050;2023-07-31T01:51:10;17.10;99.90
35258;DHT22;21385;50.878;8.050;2023-07-31T01:53:35;17.00;99.90
35258;DHT22;21385;50.878;8.050;2023-07-31T01:56:01;17.00;99.90
35258;DHT22;21385;50.878;8.050;2023-07-31T01:58:27;17.00;99.90
35258;DHT22;21385;50.878;8.050;2023-07-31T02:00:52;17.10;99.90
35258;DHT22;21385;50.878;8.050;2023-07-31T02:03:18;17.10;99.90
35258;DHT22;21385;50.878;8.050;2023-07-31T02:05:45;17.00;99.90
35258;DHT22;21385;50.878;8.050;2023-07-31T02:08:11;17.00;99.90
35258;DHT22;21385;50.878;8.050;2023-07-31T02:10:36;16.90;99.90
35258;DHT22;21385;50.878;8.050;2023-07-31T02:13:02;16.90;99.90
35258;DHT22;21385;50.878;8.050;2023-07-31T02:15:29;16.90;99.90
35258;DHT22;21385;50.878;8.050;2023-07-31T02:17:55;16.80;99.90
35258;DHT22;21385;50.878;8.050;2023-07-31T02:20:21;16.80;99.90
35258;DHT22;21385;50.878;8.050;2023-07-31T02:22:46;16.70;99.90
35258;DHT22;21385;50.878;8.050;2023-07-31T02:25:12;16.70;99.90
35258;DHT22;21385;50.878;8.050;2023-07-31T02:27:37;16.70;99.90
35258;DHT22;21385;50.878;8.050;2023-07-31T02:30:03;16.70;99.90
35258;DHT22;21385;50.878;8.050;2023-07-31T02:32:29;16.70;99.90
35258;DHT22;21385;50.878;8.050;2023-07-31T02:34:54;16.70;99.90
35258;DHT22;21385;50.878;8.050;2023-07-31T02:37:20;16.80;99.90
35258;DHT22;21385;50.878;8.050;2023-07-31T02:39:46;16.70;99.90
35258;DHT22;21385;50.878;8.050;2023-07-31T02:42:13;16.80;99.90
35258;DHT22;21385;50.878;8.050;2023-07-31T02:44:39;16.70;99.90
35258;DHT22;21385;50.878;8.050;2023-07-31T02:47:04;16.80;99.90
35258;DHT22;21385;50.878;8.050;2023-07-31T02:49:30;16.80;99.90
35258;DHT22;21385;50.878;8.050;2023-07-31T02:51:55;16.70;99.90
35258;DHT22;21385;50.878;8.050;2023-07-31T02:54:21;16.70;99.90
35258;DHT22;21385;50.878;8.050;2023-07-31T02:56:47;16.80;99.90
35258;DHT22;21385;50.878;8.050;2023-07-31T02:59:13;16.80;99.90
35258;DHT22;21385;50.878;8.050;2023-07-31T03:01:38;16.70;99.90
35258;DHT22;21385;50.878;8.050;2023-07-31T03:04:04;16.70;99.90
35258;DHT22;21385;50.878;8.050;2023-07-31T03:06:30;16.70;99.90
35258;DHT22;21385;50.878;8.050;2023-07-31T03:08:55;16.70;99.90
35258;DHT22;21385;50.878;8.050;2023-07-31T03:11:21;16.60;99.90
35258;DHT22;21385;50.878;8.050;2023-07-31T03:13:47;16.60;99.90
35258;DHT22;21385;50.878;8.050;2023-07-31T03:16:12;16.60;99.90
35258;DHT22;21385;50.878;8.050;2023-07-31T03:18:38;16.60;99.90
35258;DHT22;21385;50.878;8.050;2023-07-31T03:21:04;16.60;99.90
35258;DHT22;21385;50.878;8.050;2023-07-31T03:23:30;16.60;99.90
35258;DHT22;21385;50.878;8.050;2023-07-31T03:25:57;16.60;99.90
35258;DHT22;21385;50.878;8.050;2023-07-31T03:28:23;16.60;99.90
35258;DHT22;21385;50.878;8.050;2023-07-31T03:30:48;16.60;99.90
35258;DHT22;21385;50.878;8.050;2023-07-31T03:33:14;16.60;99.90
35258;DHT22;21385;50.878;8.050;2023-07-31T03:35:39;16.60;99.90
35258;DHT22;21385;50.878;8.050;2023-07-31T03:38:05;16.60;99.90
35258;DHT22;21385;50.878;8.050;2023-07-31T03:40:30;16.60;99.90
35258;DHT22;21385;50.878;8.050;2023-07-31T03:42:56;16.60;99.90
35258;DHT22;21385;50.878;8.050;2023-07-31T03:45:22;16.70;99.90
35258;DHT22;21385;50.878;8.050;2023-07-31T03:47:47;16.70;99.90
35258;DHT22;21385;50.878;8.050;2023-07-31T03:50:13;16.70;99.90
35258;DHT22;21385;50.878;8.050;2023-07-31T03:52:38;16.80;99.90
35258;DHT22;21385;50.878;8.050;2023-07-31T03:55:04;16.80;99.90
35258;DHT22;21385;50.878;8.050;2023-07-31T03:57:30;16.80;99.90
35258;DHT22;21385;50.878;8.050;2023-07-31T03:59:58;16.70;99.90
35258;DHT22;21385;50.878;8.050;2023-07-31T04:02:23;16.70;99.90
35258;DHT22;21385;50.878;8.050;2023-07-31T04:04:49;16.80;99.90
35258;DHT22;21385;50.878;8.050;2023-07-31T04:07:14;16.80;99.90
35258;DHT22;21385;50.878;8.050;2023-07-31T04:09:40;16.70;99.90
35258;DHT22;21385;50.878;8.050;2023-07-31T04:12:06;16.80;99.90
35258;DHT22;21385;50.878;8.050;2023-07-31T04:14:31;16.80;99.90
35258;DHT22;21385;50.878;8.050;2023-07-31T04:16:57;16.80;99.90
35258;DHT22;21385;50.878;8.050;2023-07-31T04:19:23;16.80;99.90
35258;DHT22;21385;50.878;8.050;2023-07-31T04:21:48;16.90;99.90
35258;DHT22;21385;50.878;8.050;2023-07-31T04:24:14;16.90;99.90
35258;DHT22;21385;50.878;8.050;2023-07-31T04:26:40;16.80;99.90
35258;DHT22;21385;50.878;8.050;2023-07-31T04:29:05;16.90;99.90
35258;DHT22;21385;50.878;8.050;2023-07-31T04:31:31;16.90;99.90
35258;DHT22;21385;50.878;8.050;2023-07-31T04:33:56;16.90;99.90
35258;DHT22;21385;50.878;8.050;2023-07-31T04:36:22;16.90;99.90
35258;DHT22;21385;50.878;8.050;2023-07-31T04:38:47;17.00;99.90
35258;DHT22;21385;50.878;8.050;2023-07-31T04:41:13;17.00;99.90
35258;DHT22;21385;50.878;8.050;2023-07-31T04:43:38;17.10;99.90
35258;DHT22;21385;50.878;8.050;2023-07-31T04:46:05;17.10;99.90
35258;DHT22;21385;50.878;8.050;2023-07-31T04:48:31;17.20;99.90
35258;DHT22;21385;50.878;8.050;2023-07-31T04:53:22;17.50;99.90
35258;DHT22;21385;50.878;8.050;2023-07-31T04:55:48;17.70;99.90
35258;DHT22;21385;50.878;8.050;2023-07-31T04:58:14;18.20;99.90
35258;DHT22;21385;50.878;8.050;2023-07-31T05:00:39;18.60;99.90
35258;DHT22;21385;50.878;8.050;2023-07-31T05:03:05;18.90;99.90
35258;DHT22;21385;50.878;8.050;2023-07-31T05:05:31;19.40;99.90
35258;DHT22;21385;50.878;8.050;2023-07-31T05:07:57;19.70;99.90
35258;DHT22;21385;50.878;8.050;2023-07-31T05:10:22;19.60;99.90
35258;DHT22;21385;50.878;8.050;2023-07-31T05:12:48;19.50;99.90
35258;DHT22;21385;50.878;8.050;2023-07-31T05:15:13;19.40;99.90
35258;DHT22;21385;50.878;8.050;2023-07-31T05:17:39;19.40;99.90
35258;DHT22;21385;50.878;8.050;2023-07-31T05:20:05;19.30;99.90
35258;DHT22;21385;50.878;8.050;2023-07-31T05:22:31;19.20;99.90
35258;DHT22;21385;50.878;8.050;2023-07-31T05:24:56;19.00;99.90
35258;DHT22;21385;50.878;8.050;2023-07-31T05:27:22;18.80;99.90
35258;DHT22;21385;50.878;8.050;2023-07-31T05:29:47;18.60;99.90
35258;DHT22;21385;50.878;8.050;2023-07-31T05:32:13;18.60;99.90
35258;DHT22;21385;50.878;8.050;2023-07-31T05:34:38;18.60;99.90
35258;DHT22;21385;50.878;8.050;2023-07-31T05:37:05;18.50;99.90
35258;DHT22;21385;50.878;8.050;2023-07-31T05:39:31;18.30;99.90
35258;DHT22;21385;50.878;8.050;2023-07-31T05:41:56;18.10;99.90
35258;DHT22;21385;50.878;8.050;2023-07-31T05:44:22;18.00;99.90
35258;DHT22;21385;50.878;8.050;2023-07-31T05:46:47;17.90;99.90
35258;DHT22;21385;50.878;8.050;2023-07-31T05:49:13;17.90;99.90
35258;DHT22;21385;50.878;8.050;2023-07-31T05:51:39;17.90;99.90
35258;DHT22;21385;50.878;8.050;2023-07-31T05:54:04;18.00;99.90
35258;DHT22;21385;50.878;8.050;2023-07-31T05:56:30;17.90;99.90
35258;DHT22;21385;50.878;8.050;2023-07-31T05:58:57;17.90;99.90
35258;DHT22;21385;50.878;8.050;2023-07-31T06:01:22;17.90;99.90
35258;DHT22;21385;50.878;8.050;2023-07-31T06:03:48;17.90;99.90
35258;DHT22;21385;50.878;8.050;2023-07-31T06:06:13;18.00;99.90
35258;DHT22;21385;50.878;8.050;2023-07-31T06:08:39;17.90;99.90
35258;DHT22;21385;50.878;8.050;2023-07-31T06:11:06;17.90;99.90
35258;DHT22;21385;50.878;8.050;2023-07-31T06:13:32;18.00;99.90
35258;DHT22;21385;50.878;8.050;2023-07-31T06:15:58;18.00;99.90
35258;DHT22;21385;50.878;8.050;2023-07-31T06:18:24;18.00;99.90
35258;DHT22;21385;50.878;8.050;2023-07-31T06:20:50;17.90;99.90
35258;DHT22;21385;50.878;8.050;2023-07-31T06:23:19;18.00;99.90
35258;DHT22;21385;50.878;8.050;2023-07-31T06:25:45;17.90;99.90
35258;DHT22;21385;50.878;8.050;2023-07-31T06:28:10;17.90;99.90
35258;DHT22;21385;50.878;8.050;2023-07-31T06:30:36;17.90;99.90
35258;DHT22;21385;50.878;8.050;2023-07-31T06:33:01;18.00;99.90
35258;DHT22;21385;50.878;8.050;2023-07-31T06:35:27;18.00;99.90
35258;DHT22;21385;50.878;8.050;2023-07-31T06:42:45;18.10;99.90
35258;DHT22;21385;50.878;8.050;2023-07-31T06:45:10;18.10;99.90
35258;DHT22;21385;50.878;8.050;2023-07-31T06:47:36;18.20;99.90
35258;DHT22;21385;50.878;8.050;2023-07-31T06:50:02;18.10;99.90
35258;DHT22;21385;50.878;8.050;2023-07-31T06:52:28;18.10;99.90
35258;DHT22;21385;50.878;8.050;2023-07-31T06:55:21;18.10;99.90
35258;DHT22;21385;50.878;8.050;2023-07-31T06:57:48;18.10;99.90
35258;DHT22;21385;50.878;8.050;2023-07-31T07:00:14;18.00;99.90
35258;DHT22;21385;50.878;8.050;2023-07-31T07:02:40;18.00;99.90
35258;DHT22;21385;50.878;8.050;2023-07-31T07:05:06;18.10;99.90
35258;DHT22;21385;50.878;8.050;2023-07-31T07:07:32;18.10;99.90
35258;DHT22;21385;50.878;8.050;2023-07-31T07:09:58;18.10;99.90
35258;DHT22;21385;50.878;8.050;2023-07-31T07:12:25;18.10;99.90
35258;DHT22;21385;50.878;8.050;2023-07-31T07:14:51;18.00;99.90
35258;DHT22;21385;50.878;8.050;2023-07-31T07:17:18;18.00;99.90
35258;DHT22;21385;50.878;8.050;2023-07-31T07:19:44;18.00;99.90
35258;DHT22;21385;50.878;8.050;2023-07-31T07:22:11;18.00;99.90
35258;DHT22;21385;50.878;8.050;2023-07-31T07:24:36;18.00;99.90
35258;DHT22;21385;50.878;8.050;2023-07-31T07:31:54;18.20;99.90
35258;DHT22;21385;50.878;8.050;2023-07-31T07:34:22;18.20;99.90
35258;DHT22;21385;50.878;8.050;2023-07-31T07:36:48;18.20;99.90
35258;DHT22;21385;50.878;8.050;2023-07-31T07:39:14;18.20;99.90
35258;DHT22;21385;50.878;8.050;2023-07-31T07:41:39;18.10;99.90
35258;DHT22;21385;50.878;8.050;2023-07-31T07:44:05;18.10;99.90
35258;DHT22;21385;50.878;8.050;2023-07-31T07:46:31;18.10;99.90
35258;DHT22;21385;50.878;8.050;2023-07-31T07:48:56;18.10;99.90
35258;DHT22;21385;50.878;8.050;2023-07-31T07:51:22;18.20;99.90
35258;DHT22;21385;50.878;8.050;2023-07-31T07:53:47;18.20;99.90
35258;DHT22;21385;50.878;8.050;2023-07-31T07:56:13;18.20;99.90
35258;DHT22;21385;50.878;8.050;2023-07-31T07:58:38;18.20;99.90
35258;DHT22;21385;50.878;8.050;2023-07-31T08:01:04;18.20;99.90
35258;DHT22;21385;50.878;8.050;2023-07-31T08:03:30;18.30;99.90
35258;DHT22;21385;50.878;8.050;2023-07-31T08:05:59;18.50;99.90
35258;DHT22;21385;50.878;8.050;2023-07-31T08:08:25;18.70;99.90
35258;DHT22;21385;50.878;8.050;2023-07-31T08:10:50;18.70;99.90
35258;DHT22;21385;50.878;8.050;2023-07-31T08:13:16;18.70;99.90
35258;DHT22;21385;50.878;8.050;2023-07-31T08:15:42;18.80;99.90
35258;DHT22;21385;50.878;8.050;2023-07-31T08:18:08;18.90;99.90
35258;DHT22;21385;50.878;8.050;2023-07-31T08:20:34;18.90;99.90
35258;DHT22;21385;50.878;8.050;2023-07-31T08:23:00;18.90;99.90
35258;DHT22;21385;50.878;8.050;2023-07-31T08:25:25;18.90;99.90
35258;DHT22;21385;50.878;8.050;2023-07-31T08:27:51;18.80;99.90
35258;DHT22;21385;50.878;8.050;2023-07-31T08:30:18;18.80;99.90
35258;DHT22;21385;50.878;8.050;2023-07-31T08:32:44;18.80;99.90
35258;DHT22;21385;50.878;8.050;2023-07-31T08:35:10;18.70;99.90
35258;DHT22;21385;50.878;8.050;2023-07-31T08:37:36;18.60;99.90
35258;DHT22;21385;50.878;8.050;2023-07-31T08:40:01;18.60;99.90
35258;DHT22;21385;50.878;8.050;2023-07-31T08:42:27;18.50;99.90
35258;DHT22;21385;50.878;8.050;2023-07-31T08:44:53;18.50;99.90
35258;DHT22;21385;50.878;8.050;2023-07-31T08:47:20;18.40;99.90
35258;DHT22;21385;50.878;8.050;2023-07-31T08:49:47;18.50;99.90
35258;DHT22;21385;50.878;8.050;2023-07-31T08:52:13;18.50;99.90
35258;DHT22;21385;50.878;8.050;2023-07-31T08:54:40;18.50;99.90
35258;DHT22;21385;50.878;8.050;2023-07-31T08:57:06;18.40;99.90
35258;DHT22;21385;50.878;8.050;2023-07-31T08:59:34;18.50;99.90
35258;DHT22;21385;50.878;8.050;2023-07-31T09:02:06;18.40;99.90
35258;DHT22;21385;50.878;8.050;2023-07-31T09:04:33;18.40;99.90
35258;DHT22;21385;50.878;8.050;2023-07-31T09:07:03;18.30;99.90
35258;DHT22;21385;50.878;8.050;2023-07-31T09:09:33;18.30;99.90
35258;DHT22;21385;50.878;8.050;2023-07-31T09:11:59;18.40;99.90
35258;DHT22;21385;50.878;8.050;2023-07-31T09:14:25;18.30;99.90
35258;DHT22;21385;50.878;8.050;2023-07-31T09:19:26;18.20;99.90
35258;DHT22;21385;50.878;8.050;2023-07-31T09:21:52;18.10;99.90
35258;DHT22;21385;50.878;8.050;2023-07-31T09:24:31;17.90;99.90
35258;DHT22;21385;50.878;8.050;2023-07-31T09:26:58;17.80;99.90
35258;DHT22;21385;50.878;8.050;2023-07-31T09:29:25;17.90;99.90
35258;DHT22;21385;50.878;8.050;2023-07-31T09:31:52;17.70;99.90
35258;DHT22;21385;50.878;8.050;2023-07-31T09:34:19;17.70;99.90
35258;DHT22;21385;50.878;8.050;2023-07-31T09:36:47;17.70;99.90
35258;DHT22;21385;50.878;8.050;2023-07-31T09:39:14;17.60;99.90
35258;DHT22;21385;50.878;8.050;2023-07-31T09:41:48;17.60;99.90
35258;DHT22;21385;50.878;8.050;2023-07-31T09:44:18;17.60;99.90
35258;DHT22;21385;50.878;8.050;2023-07-31T09:46:45;17.60;99.90
35258;DHT22;21385;50.878;8.050;2023-07-31T09:49:13;17.70;99.90
35258;DHT22;21385;50.878;8.050;2023-07-31T09:51:40;17.60;99.90
35258;DHT22;21385;50.878;8.050;2023-07-31T09:54:13;17.60;99.90
35258;DHT22;21385;50.878;8.050;2023-07-31T09:56:49;17.60;99.90
35258;DHT22;21385;50.878;8.050;2023-07-31T09:59:16;17.70;99.90
35258;DHT22;21385;50.878;8.050;2023-07-31T10:01:43;17.80;99.90
35258;DHT22;21385;50.878;8.050;2023-07-31T10:04:10;17.90;99.90
35258;DHT22;21385;50.878;8.050;2023-07-31T10:06:37;17.90;99.90
35258;DHT22;21385;50.878;8.050;2023-07-31T10:09:06;18.00;99.90
35258;DHT22;21385;50.878;8.050;2023-07-31T10:11:39;17.90;99.90
35258;DHT22;21385;50.878;8.050;2023-07-31T10:14:07;18.00;99.90
35258;DHT22;21385;50.878;8.050;2023-07-31T10:19:01;18.00;99.90
35258;DHT22;21385;50.878;8.050;2023-07-31T10:21:27;18.00;99.90
35258;DHT22;21385;50.878;8.050;2023-07-31T10:23:54;18.00;99.90
35258;DHT22;21385;50.878;8.050;2023-07-31T10:26:22;18.10;99.90
35258;DHT22;21385;50.878;8.050;2023-07-31T10:28:49;18.20;99.90
35258;DHT22;21385;50.878;8.050;2023-07-31T10:31:16;18.20;99.90
35258;DHT22;21385;50.878;8.050;2023-07-31T10:33:42;18.10;99.90
35258;DHT22;21385;50.878;8.050;2023-07-31T10:36:18;18.20;99.90
35258;DHT22;21385;50.878;8.050;2023-07-31T10:38:45;18.30;99.90
35258;DHT22;21385;50.878;8.050;2023-07-31T10:41:11;18.50;99.90
35258;DHT22;21385;50.878;8.050;2023-07-31T10:43:37;18.70;99.90
35258;DHT22;21385;50.878;8.050;2023-07-31T10:46:07;18.70;99.90
35258;DHT22;21385;50.878;8.050;2023-07-31T10:48:34;18.80;99.90
35258;DHT22;21385;50.878;8.050;2023-07-31T10:51:12;18.90;99.90
35258;DHT22;21385;50.878;8.050;2023-07-31T10:53:39;18.90;99.90
35258;DHT22;21385;50.878;8.050;2023-07-31T10:56:10;18.90;99.90
35258;DHT22;21385;50.878;8.050;2023-07-31T10:58:44;18.90;99.90
35258;DHT22;21385;50.878;8.050;2023-07-31T11:01:10;19.00;99.90
35258;DHT22;21385;50.878;8.050;2023-07-31T11:03:49;19.00;99.90
35258;DHT22;21385;50.878;8.050;2023-07-31T11:06:17;18.90;99.90
35258;DHT22;21385;50.878;8.050;2023-07-31T11:08:48;18.90;99.90
35258;DHT22;21385;50.878;8.050;2023-07-31T11:11:18;18.80;99.90
35258;DHT22;21385;50.878;8.050;2023-07-31T11:13:50;18.80;99.90
35258;DHT22;21385;50.878;8.050;2023-07-31T11:16:19;18.70;99.90
35258;DHT22;21385;50.878;8.050;2023-07-31T11:18:46;18.70;99.90
35258;DHT22;21385;50.878;8.050;2023-07-31T11:21:21;18.70;99.90
35258;DHT22;21385;50.878;8.050;2023-07-31T11:23:52;18.80;99.90
35258;DHT22;21385;50.878;8.050;2023-07-31T11:26:18;18.80;99.90
35258;DHT22;21385;50.878;8.050;2023-07-31T11:28:46;18.80;99.90
35258;DHT22;21385;50.878;8.050;2023-07-31T11:31:12;18.80;99.90
35258;DHT22;21385;50.878;8.050;2023-07-31T11:33:38;18.70;99.90
35258;DHT22;21385;50.878;8.050;2023-07-31T11:36:04;18.70;99.90
35258;DHT22;21385;50.878;8.050;2023-07-31T11:38:34;18.80;99.90
35258;DHT22;21385;50.878;8.050;2023-07-31T11:41:02;18.80;99.90
35258;DHT22;21385;50.878;8.050;2023-07-31T11:43:33;18.90;99.90
35258;DHT22;21385;50.878;8.050;2023-07-31T11:46:02;18.90;99.90
35258;DHT22;21385;50.878;8.050;2023-07-31T11:48:34;18.90;99.90
35258;DHT22;21385;50.878;8.050;2023-07-31T11:51:03;19.00;99.90
35258;DHT22;21385;50.878;8.050;2023-07-31T11:53:45;19.00;99.90
35258;DHT22;21385;50.878;8.050;2023-07-31T11:56:14;19.00;99.90
35258;DHT22;21385;50.878;8.050;2023-07-31T11:58:42;19.10;99.90
35258;DHT22;21385;50.878;8.050;2023-07-31T12:01:09;19.20;99.90
35258;DHT22;21385;50.878;8.050;2023-07-31T12:03:35;19.20;99.90
35258;DHT22;21385;50.878;8.050;2023-07-31T12:06:01;19.30;99.90
35258;DHT22;21385;50.878;8.050;2023-07-31T12:08:29;19.30;99.90
35258;DHT22;21385;50.878;8.050;2023-07-31T12:11:05;19.30;99.90
35258;DHT22;21385;50.878;8.050;2023-07-31T12:13:32;19.40;99.90
35258;DHT22;21385;50.878;8.050;2023-07-31T12:16:02;19.50;99.90
35258;DHT22;21385;50.878;8.050;2023-07-31T12:18:31;19.60;99.90
35258;DHT22;21385;50.878;8.050;2023-07-31T12:21:00;19.70;99.90
35258;DHT22;21385;50.878;8.050;2023-07-31T12:23:27;19.60;99.90
35258;DHT22;21385;50.878;8.050;2023-07-31T12:26:09;19.60;99.90
35258;DHT22;21385;50.878;8.050;2023-07-31T12:33:34;19.50;99.90
35258;DHT22;21385;50.878;8.050;2023-07-31T12:36:06;19.30;99.90
35258;DHT22;21385;50.878;8.050;2023-07-31T12:38:33;19.30;99.90
35258;DHT22;21385;50.878;8.050;2023-07-31T12:40:58;19.10;99.90
35258;DHT22;21385;50.878;8.050;2023-07-31T12:43:24;19.20;99.90
35258;DHT22;21385;50.878;8.050;2023-07-31T12:45:50;19.10;99.90
35258;DHT22;21385;50.878;8.050;2023-07-31T12:48:16;19.10;99.90
35258;DHT22;21385;50.878;8.050;2023-07-31T12:50:41;19.10;99.90
35258;DHT22;21385;50.878;8.050;2023-07-31T12:53:07;19.20;99.90
35258;DHT22;21385;50.878;8.050;2023-07-31T12:55:33;19.10;99.90
35258;DHT22;21385;50.878;8.050;2023-07-31T12:58:02;19.00;99.90
35258;DHT22;21385;50.878;8.050;2023-07-31T13:00:28;19.00;99.90
35258;DHT22;21385;50.878;8.050;2023-07-31T13:02:54;18.90;99.90
35258;DHT22;21385;50.878;8.050;2023-07-31T13:07:47;18.70;99.90
35258;DHT22;21385;50.878;8.050;2023-07-31T13:10:12;18.80;99.90
35258;DHT22;21385;50.878;8.050;2023-07-31T13:12:38;18.80;99.90
35258;DHT22;21385;50.878;8.050;2023-07-31T13:15:08;18.80;99.90
35258;DHT22;21385;50.878;8.050;2023-07-31T13:17:35;18.90;99.90
35258;DHT22;21385;50.878;8.050;2023-07-31T13:20:01;18.90;99.90
35258;DHT22;21385;50.878;8.050;2023-07-31T13:22:27;18.90;99.90
35258;DHT22;21385;50.878;8.050;2023-07-31T13:24:52;19.00;99.90
35258;DHT22;21385;50.878;8.050;2023-07-31T13:27:18;19.10;99.90
35258;DHT22;21385;50.878;8.050;2023-07-31T13:29:47;19.20;99.90
35258;DHT22;21385;50.878;8.050;2023-07-31T13:32:13;19.20;99.90
35258;DHT22;21385;50.878;8.050;2023-07-31T13:34:38;19.30;99.90
35258;DHT22;21385;50.878;8.050;2023-07-31T13:37:04;19.40;99.90
35258;DHT22;21385;50.878;8.050;2023-07-31T13:39:31;19.40;99.90
35258;DHT22;21385;50.878;8.050;2023-07-31T13:41:58;19.50;99.90
35258;DHT22;21385;50.878;8.050;2023-07-31T13:44:23;19.40;99.90
35258;DHT22;21385;50.878;8.050;2023-07-31T13:46:49;19.40;99.90
35258;DHT22;21385;50.878;8.050;2023-07-31T13:49:14;19.40;99.90
35258;DHT22;21385;50.878;8.050;2023-07-31T13:51:40;19.40;99.90
35258;DHT22;21385;50.878;8.050;2023-07-31T13:54:05;19.40;99.90
35258;DHT22;21385;50.878;8.050;2023-07-31T13:56:34;19.40;99.90
35258;DHT22;21385;50.878;8.050;2023-07-31T13:58:59;19.40;99.90
35258;DHT22;21385;50.878;8.050;2023-07-31T14:01:26;19.40;99.90
35258;DHT22;21385;50.878;8.050;2023-07-31T14:03:52;19.40;99.90
35258;DHT22;21385;50.878;8.050;2023-07-31T14:06:18;19.40;99.90
35258;DHT22;21385;50.878;8.050;2023-07-31T14:08:44;19.50;99.90
35258;DHT22;21385;50.878;8.050;2023-07-31T14:11:09;19.50;99.90
35258;DHT22;21385;50.878;8.050;2023-07-31T14:13:35;19.50;99.90
35258;DHT22;21385;50.878;8.050;2023-07-31T14:16:00;19.40;99.90
35258;DHT22;21385;50.878;8.050;2023-07-31T14:18:26;19.40;99.90
35258;DHT22;21385;50.878;8.050;2023-07-31T14:20:51;19.40;99.90
35258;DHT22;21385;50.878;8.050;2023-07-31T14:23:17;19.50;99.90
35258;DHT22;21385;50.878;8.050;2023-07-31T14:25:45;19.50;99.90
35258;DHT22;21385;50.878;8.050;2023-07-31T14:28:11;19.60;99.90
35258;DHT22;21385;50.878;8.050;2023-07-31T14:30:36;19.60;99.90
35258;DHT22;21385;50.878;8.050;2023-07-31T14:33:02;19.70;99.90
35258;DHT22;21385;50.878;8.050;2023-07-31T14:35:28;19.80;99.90
35258;DHT22;21385;50.878;8.050;2023-07-31T14:37:53;20.10;99.90
35258;DHT22;21385;50.878;8.050;2023-07-31T14:40:19;20.30;99.90
35258;DHT22;21385;50.878;8.050;2023-07-31T14:42:45;20.40;99.90
35258;DHT22;21385;50.878;8.050;2023-07-31T14:45:10;20.50;99.90
35258;DHT22;21385;50.878;8.050;2023-07-31T14:47:36;20.50;99.90
35258;DHT22;21385;50.878;8.050;2023-07-31T14:50:02;20.60;99.90
35258;DHT22;21385;50.878;8.050;2023-07-31T14:52:28;20.70;99.90
35258;DHT22;21385;50.878;8.050;2023-07-31T14:54:54;20.70;99.90
35258;DHT22;21385;50.878;8.050;2023-07-31T14:57:20;20.60;99.90
35258;DHT22;21385;50.878;8.050;2023-07-31T14:59:46;20.60;99.90
35258;DHT22;21385;50.878;8.050;2023-07-31T15:02:12;20.60;99.90
35258;DHT22;21385;50.878;8.050;2023-07-31T15:04:37;20.50;99.90
35258;DHT22;21385;50.878;8.050;2023-07-31T15:07:03;20.50;99.90
35258;DHT22;21385;50.878;8.050;2023-07-31T15:09:29;20.40;99.90
35258;DHT22;21385;50.878;8.050;2023-07-31T15:11:56;20.40;99.90
35258;DHT22;21385;50.878;8.050;2023-07-31T15:14:22;20.40;99.90
35258;DHT22;21385;50.878;8.050;2023-07-31T15:16:48;20.30;99.90
35258;DHT22;21385;50.878;8.050;2023-07-31T15:19:14;20.30;99.90
35258;DHT22;21385;50.878;8.050;2023-07-31T15:21:40;20.20;99.90
35258;DHT22;21385;50.878;8.050;2023-07-31T15:24:05;20.30;99.90
35258;DHT22;21385;50.878;8.050;2023-07-31T15:26:31;20.30;99.90
35258;DHT22;21385;50.878;8.050;2023-07-31T15:29:06;20.30;99.90
35258;DHT22;21385;50.878;8.050;2023-07-31T15:31:39;20.10;99.90
35258;DHT22;21385;50.878;8.050;2023-07-31T15:34:05;20.10;99.90
35258;DHT22;21385;50.878;8.050;2023-07-31T15:36:31;20.00;99.90
35258;DHT22;21385;50.878;8.050;2023-07-31T15:38:57;19.90;99.90
35258;DHT22;21385;50.878;8.050;2023-07-31T15:41:23;19.90;99.90
35258;DHT22;21385;50.878;8.050;2023-07-31T15:43:49;19.80;99.90
35258;DHT22;21385;50.878;8.050;2023-07-31T15:46:14;19.80;99.90
35258;DHT22;21385;50.878;8.050;2023-07-31T15:48:40;19.70;99.90
35258;DHT22;21385;50.878;8.050;2023-07-31T15:51:06;19.70;99.90
35258;DHT22;21385;50.878;8.050;2023-07-31T15:53:31;19.70;99.90
35258;DHT22;21385;50.878;8.050;2023-07-31T15:55:57;19.60;99.90